03:58
Airports
History
Links
Donate
Help keep this website running!
PayPal
Bitcoin
This page is community maintained. The information is intended for PC simulator navigation or reference.
Always use approved charts for navigation.
E54
Bowie
Bowie (E54)
Bowie, Arizona, United States (85605)
4
Lat/Lng:32° 20' 9.27" N / 109° 28' 23.23" W
32.335909 / -109.47312
Elevation:3737'ft / 1139mMSL
ID / ICAO:E54
Runways:1
Longest:08-26
Dirt 1,191m / 3,907ft
Nearby Weather03:51 GMT 2017-10-17
Nearby weather at KSAD, Safford Rgnl located 37.0 nautical miles from E54
Altimeter: 30.18
Visibility: 10.0 statute miles
Wind: 8 knots (from 080°)
Temp: 22°c / 72°f
Humidity: 35.4%

METAR: KSAD 170351Z AUTO 08008KT 10SM CLR 22/06 A3018 RMK AO2 SLP183 T02220056

(Powered by phpweather)
Nearby VORs <50NM
Nearby NDBs
Runway 08 / 26
Dimensions:1190.9 x 21.3m 3907' x 70'ft
Surface:Dirt
Runway 08 [A]Runway 26 [B]
Heading:092°TH 272°TH
Lat:
Lng:
32° 20' 9.95"N
109° 28' 46.15"W
32° 20' 8.6"N
109° 28' 0.31"W
User Notes and Comments
32° 20' 9.27" N / 109° 28' 23.23" W
Distance To
Airport ID:
Nearby Airports
(R) Leroy 22.8 NM
4AZ9 SW 227°
(U) Cochise County 25.4 NM
P33 WSW 255°
(R) High Mesa Airpark 31.3 NM
3AZ8 NNW 340°
(R) Ammon 35.7 NM
AZ14 SW 232°
(U) Safford Rgnl 37.0 NM
KSAD ( WX ) NNW 345°
(R) Amigos Del Cielo 39.8 NM
NM90 SE 138°
4 Flying J Ranch 42.6 NM
E37 NW 326°
VFR Chart
Flight Planning at SkyVector.com